createdAt,value
2022-11-03T00:01:15.994Z,6.60
2022-11-03T00:03:42.825Z,6.27
2022-11-03T00:06:09.754Z,6.93
2022-11-03T00:08:39.470Z,8.43
2022-11-03T00:11:08.852Z,6.70
2022-11-03T00:13:36.907Z,8.40
2022-11-03T00:16:04.599Z,5.57
2022-11-03T00:18:33.299Z,5.80
2022-11-03T00:21:01.786Z,6.53
2022-11-03T00:23:30.733Z,7.10
2022-11-03T00:26:08.230Z,7.17
2022-11-03T00:28:35.580Z,8.03
2022-11-03T00:31:06.749Z,7.57
2022-11-03T00:33:35.478Z,5.83
2022-11-03T00:36:03.331Z,5.07
2022-11-03T00:38:30.771Z,5.67
2022-11-03T00:40:59.060Z,5.83
2022-11-03T00:43:27.505Z,6.93
2022-11-03T00:45:55.287Z,7.70
2022-11-03T00:48:37.885Z,6.67
2022-11-03T00:51:08.748Z,7.07
2022-11-03T00:53:37.120Z,8.07
2022-11-03T00:56:05.437Z,8.67
2022-11-03T00:58:33.624Z,6.23
2022-11-03T01:01:02.661Z,5.60
2022-11-03T01:03:29.810Z,6.40
2022-11-03T01:06:15.437Z,6.23
2022-11-03T01:08:43.579Z,7.17
2022-11-03T01:11:31.159Z,5.93
2022-11-03T01:13:58.443Z,6.00
2022-11-03T01:16:25.789Z,5.90
2022-11-03T01:18:52.779Z,7.60
2022-11-03T01:21:19.640Z,5.43
2022-11-03T01:23:47.919Z,5.57
2022-11-03T01:26:14.905Z,6.73
2022-11-03T01:28:43.125Z,6.87
2022-11-03T01:31:11.965Z,6.63
2022-11-03T01:33:39.123Z,7.00
2022-11-03T01:36:06.209Z,6.30
2022-11-03T01:38:34.524Z,6.43
2022-11-03T01:41:04.393Z,5.67
2022-11-03T01:43:33.981Z,8.77
2022-11-03T01:46:05.428Z,7.67
2022-11-03T01:48:34.292Z,6.37
2022-11-03T01:51:03.027Z,7.17
2022-11-03T01:53:31.047Z,6.10
2022-11-03T01:55:59.491Z,5.83
2022-11-03T01:58:32.863Z,5.20
2022-11-03T02:01:01.479Z,5.63
2022-11-03T02:03:32.767Z,5.50
2022-11-03T02:05:59.948Z,4.43
2022-11-03T02:08:32.277Z,6.30
2022-11-03T02:10:59.305Z,6.53
2022-11-03T02:13:28.019Z,6.90
2022-11-03T02:15:57.954Z,4.67
2022-11-03T02:18:28.188Z,6.23
2022-11-03T02:21:04.324Z,5.90
2022-11-03T02:23:37.300Z,5.60
2022-11-03T02:26:08.284Z,6.03
2022-11-03T02:28:35.206Z,6.17
2022-11-03T02:31:10.374Z,5.67
2022-11-03T02:33:48.718Z,5.83
2022-11-03T02:36:20.390Z,4.63
2022-11-03T02:38:52.228Z,5.97
2022-11-03T02:41:22.252Z,4.13
2022-11-03T02:43:49.889Z,5.90
2022-11-03T02:46:18.340Z,5.23
2022-11-03T02:48:45.780Z,6.27
2022-11-03T02:51:12.678Z,6.23
2022-11-03T02:53:44.741Z,6.07
2022-11-03T02:56:15.294Z,7.73
2022-11-03T02:58:50.978Z,8.13
2022-11-03T03:01:23.950Z,9.00
2022-11-03T03:03:55.312Z,5.90
2022-11-03T03:06:26.075Z,6.27
2022-11-03T03:08:57.998Z,5.83
2022-11-03T03:11:37.674Z,7.27
2022-11-03T03:14:13.857Z,9.50
2022-11-03T03:16:49.166Z,6.77
2022-11-03T03:19:26.830Z,8.53
2022-11-03T03:21:57.968Z,8.13
2022-11-03T03:24:31.480Z,8.30
2022-11-03T03:27:01.639Z,7.77
2022-11-03T03:29:35.216Z,9.40
2022-11-03T03:32:06.759Z,8.33
2022-11-03T03:34:36.802Z,7.83
2022-11-03T03:37:06.429Z,8.50
2022-11-03T03:39:36.137Z,6.43
2022-11-03T03:42:04.856Z,7.47
2022-11-03T03:44:34.803Z,7.00
2022-11-03T03:47:08.073Z,8.33
2022-11-03T03:49:34.935Z,7.83
2022-11-03T03:52:03.747Z,7.57
2022-11-03T03:54:30.742Z,9.33
2022-11-03T03:57:02.605Z,8.27
2022-11-03T03:59:29.584Z,8.30
2022-11-03T04:01:58.103Z,7.37
2022-11-03T04:04:25.302Z,6.13
2022-11-03T04:07:12.158Z,8.63
2022-11-03T04:09:38.998Z,8.27
2022-11-03T04:12:26.035Z,5.33
2022-11-03T04:15:11.295Z,6.27
2022-11-03T04:18:02.482Z,7.63
2022-11-03T04:20:48.335Z,5.60
2022-11-03T04:23:15.640Z,6.53
2022-11-03T04:25:47.729Z,5.87
2022-11-03T04:28:15.638Z,8.53
2022-11-03T04:30:42.648Z,6.27
2022-11-03T04:33:14.813Z,7.03
2022-11-03T04:35:44.232Z,7.17
2022-11-03T04:38:21.741Z,7.10
2022-11-03T04:40:55.070Z,7.63
2022-11-03T04:43:29.289Z,8.57
2022-11-03T04:45:56.241Z,5.80
2022-11-03T04:48:27.056Z,8.50
2022-11-03T04:50:55.495Z,9.77
2022-11-03T04:53:23.574Z,9.03
2022-11-03T04:55:53.046Z,8.40
2022-11-03T04:58:21.441Z,8.50
2022-11-03T05:00:49.657Z,6.83
2022-11-03T05:03:21.725Z,6.90
2022-11-03T05:05:50.690Z,7.23
2022-11-03T05:08:19.409Z,7.90
2022-11-03T05:10:47.234Z,6.20
2022-11-03T05:13:21.101Z,6.83
2022-11-03T05:15:49.581Z,6.23
2022-11-03T05:18:20.173Z,6.87
2022-11-03T05:20:53.278Z,5.87
2022-11-03T05:23:21.895Z,6.27
2022-11-03T05:25:51.397Z,6.03
2022-11-03T05:28:24.779Z,7.03
2022-11-03T05:30:53.330Z,6.73
2022-11-03T05:33:25.479Z,7.20
2022-11-03T05:35:54.097Z,7.07
2022-11-03T05:38:22.515Z,6.93
2022-11-03T05:40:53.725Z,7.50
2022-11-03T05:43:21.907Z,6.50
2022-11-03T05:45:51.967Z,8.27
2022-11-03T05:48:25.067Z,8.80
2022-11-03T05:50:53.345Z,7.60
2022-11-03T05:53:27.429Z,10.20
2022-11-03T05:55:55.571Z,5.93
2022-11-03T05:58:27.521Z,5.63
2022-11-03T06:00:55.243Z,6.53
2022-11-03T06:03:24.967Z,6.77
2022-11-03T06:05:53.859Z,7.33
2022-11-03T06:08:22.190Z,8.77
2022-11-03T06:10:51.106Z,6.37
2022-11-03T06:13:20.710Z,7.07
2022-11-03T06:15:51.389Z,8.23
2022-11-03T06:18:21.496Z,8.77
2022-11-03T06:20:54.816Z,5.37
2022-11-03T06:23:22.619Z,9.43
2022-11-03T06:25:50.808Z,7.53
2022-11-03T06:28:20.951Z,11.07
2022-11-03T06:30:48.758Z,7.13
2022-11-03T06:33:22.095Z,8.73
2022-11-03T06:35:50.118Z,5.53
2022-11-03T06:38:22.533Z,8.60
2022-11-03T06:40:51.686Z,6.30
2022-11-03T06:43:24.781Z,10.10
2022-11-03T06:45:54.668Z,8.30
2022-11-03T06:48:26.977Z,7.83
2022-11-03T06:50:54.969Z,7.53
2022-11-03T06:53:26.217Z,10.93
2022-11-03T06:55:53.835Z,7.90
2022-11-03T06:58:27.741Z,8.03
2022-11-03T07:01:02.622Z,7.07
2022-11-03T07:03:33.390Z,13.60
2022-11-03T07:06:02.556Z,8.60
2022-11-03T07:08:34.768Z,6.73
2022-11-03T07:11:05.042Z,6.47
2022-11-03T07:13:34.310Z,7.03
2022-11-03T07:16:01.245Z,7.10
2022-11-03T07:18:33.354Z,7.53
2022-11-03T07:21:23.358Z,8.03
2022-11-03T07:23:52.263Z,6.40
2022-11-03T07:26:19.148Z,8.80
2022-11-03T07:28:48.377Z,6.93
2022-11-03T07:31:19.678Z,7.30
2022-11-03T07:33:46.620Z,8.27
2022-11-03T07:36:18.412Z,7.00
2022-11-03T07:38:48.043Z,9.07
2022-11-03T07:41:19.988Z,7.20
2022-11-03T07:43:53.263Z,7.57
2022-11-03T07:46:21.593Z,8.23
2022-11-03T07:48:50.220Z,7.30
2022-11-03T07:51:22.011Z,8.37
2022-11-03T07:53:51.008Z,7.40
2022-11-03T07:56:22.099Z,7.10
2022-11-03T07:58:52.294Z,7.13
2022-11-03T08:01:31.361Z,8.20
2022-11-03T08:04:04.439Z,8.37
2022-11-03T08:06:31.725Z,6.17
2022-11-03T08:08:58.982Z,7.23
2022-11-03T08:11:29.355Z,6.43
2022-11-03T08:13:57.189Z,7.93
2022-11-03T08:16:24.051Z,5.07
2022-11-03T08:18:50.919Z,6.80
2022-11-03T08:21:17.806Z,5.67
2022-11-03T08:23:47.558Z,6.60
2022-11-03T08:26:15.280Z,6.37
2022-11-03T08:28:43.730Z,6.23
2022-11-03T08:31:12.872Z,5.30
2022-11-03T08:33:41.216Z,7.47
2022-11-03T08:36:09.727Z,7.67
2022-11-03T08:38:37.064Z,6.63
2022-11-03T08:41:04.034Z,7.23
2022-11-03T08:43:30.916Z,6.23
2022-11-03T08:46:08.248Z,6.10
2022-11-03T08:48:40.011Z,6.33
2022-11-03T08:51:08.389Z,4.67
2022-11-03T08:53:35.511Z,9.20
2022-11-03T08:56:02.375Z,5.93
2022-11-03T08:58:29.297Z,4.67
2022-11-03T09:00:56.205Z,5.23
2022-11-03T09:03:24.879Z,5.17
2022-11-03T09:05:51.899Z,5.13
2022-11-03T09:11:05.916Z,6.20
2022-11-03T09:13:32.809Z,5.50
2022-11-03T09:15:59.807Z,9.67
2022-11-03T09:18:28.000Z,6.03
2022-11-03T09:20:55.034Z,5.30
2022-11-03T09:23:22.035Z,5.93
2022-11-03T09:25:48.914Z,5.63
2022-11-03T09:28:15.818Z,7.90
2022-11-03T09:30:42.701Z,5.03
2022-11-03T09:33:09.687Z,4.67
2022-11-03T09:35:38.024Z,3.53
2022-11-03T09:38:05.897Z,6.53
2022-11-03T09:40:33.204Z,3.83
2022-11-03T09:43:00.822Z,4.53
2022-11-03T09:45:27.937Z,5.63
2022-11-03T09:47:56.425Z,4.10
2022-11-03T09:50:24.082Z,4.17
2022-11-03T09:52:54.323Z,6.53
2022-11-03T09:55:23.800Z,5.43
2022-11-03T09:57:52.452Z,5.07
2022-11-03T10:00:21.149Z,4.07
2022-11-03T10:02:48.503Z,4.70
2022-11-03T10:05:24.701Z,5.50
2022-11-03T10:07:57.834Z,6.20
2022-11-03T10:10:25.569Z,4.50
2022-11-03T10:12:53.497Z,3.83
2022-11-03T10:15:22.525Z,4.87
2022-11-03T10:17:50.699Z,4.93
2022-11-03T10:20:20.064Z,4.53
2022-11-03T10:22:51.515Z,4.93
2022-11-03T10:25:36.689Z,6.07
2022-11-03T10:28:16.190Z,6.03
2022-11-03T10:31:11.659Z,4.33
2022-11-03T10:33:41.346Z,4.60
2022-11-03T10:36:23.507Z,5.03
2022-11-03T10:38:50.475Z,3.93
2022-11-03T10:41:20.134Z,5.03
2022-11-03T10:44:00.716Z,3.63
2022-11-03T10:49:16.437Z,3.47
2022-11-03T10:51:45.177Z,4.30
2022-11-03T10:54:14.654Z,4.20
2022-11-03T10:56:43.408Z,4.07
2022-11-03T10:59:16.236Z,3.57
2022-11-03T11:01:43.271Z,4.27
2022-11-03T11:04:12.105Z,4.23
2022-11-03T11:06:41.013Z,3.97
2022-11-03T11:09:12.493Z,5.13
2022-11-03T11:11:39.337Z,4.43
2022-11-03T11:14:35.358Z,4.37
2022-11-03T11:17:03.526Z,3.07
2022-11-03T11:19:30.895Z,3.40
2022-11-03T11:22:06.581Z,2.63
2022-11-03T11:25:02.606Z,3.07
2022-11-03T11:28:08.114Z,3.30
2022-11-03T11:31:00.395Z,3.80
2022-11-03T11:33:28.416Z,5.60
2022-11-03T11:36:26.827Z,4.90
2022-11-03T11:38:57.869Z,5.07
2022-11-03T11:42:02.299Z,8.20
2022-11-03T11:44:57.939Z,6.67
2022-11-03T11:47:45.618Z,5.93
2022-11-03T11:50:29.684Z,4.97
2022-11-03T11:53:12.437Z,4.67
2022-11-03T11:55:43.848Z,4.73
2022-11-03T11:58:21.115Z,5.93
2022-11-03T12:00:57.069Z,5.27
2022-11-03T12:03:29.913Z,4.47
2022-11-03T12:05:56.918Z,6.27
2022-11-03T12:08:29.839Z,4.97
2022-11-03T12:10:59.740Z,6.27
2022-11-03T12:13:51.470Z,4.73
2022-11-03T12:16:35.148Z,5.67
2022-11-03T12:19:35.849Z,4.90
2022-11-03T12:22:03.610Z,4.10
2022-11-03T12:24:39.500Z,4.43
2022-11-03T12:27:33.965Z,6.00
2022-11-03T12:30:03.725Z,5.87
2022-11-03T12:32:33.656Z,4.27
2022-11-03T12:35:03.175Z,5.90
2022-11-03T12:37:30.103Z,9.33
2022-11-03T12:39:57.110Z,5.03
2022-11-03T12:42:25.288Z,6.83
2022-11-03T12:44:52.672Z,4.97
2022-11-03T12:47:19.994Z,5.40
2022-11-03T12:49:46.903Z,5.33
2022-11-03T12:52:15.567Z,5.47
2022-11-03T12:54:42.533Z,3.90
2022-11-03T12:57:09.514Z,5.40
2022-11-03T12:59:36.816Z,6.63
2022-11-03T13:02:03.999Z,4.83
2022-11-03T13:04:31.110Z,7.33
2022-11-03T13:06:58.029Z,6.63
2022-11-03T13:09:26.295Z,9.60
2022-11-03T13:12:11.595Z,5.77
2022-11-03T13:14:38.516Z,8.73
2022-11-03T13:17:05.454Z,7.67
2022-11-03T13:19:32.369Z,8.47
2022-11-03T13:22:00.268Z,5.70
2022-11-03T13:24:28.627Z,8.47
2022-11-03T13:26:55.626Z,8.80
2022-11-03T13:29:22.584Z,10.87
2022-11-03T13:31:49.441Z,10.67
2022-11-03T13:34:16.293Z,9.83
2022-11-03T13:36:43.207Z,10.70
2022-11-03T13:39:10.122Z,11.03
2022-11-03T13:41:38.310Z,10.10
2022-11-03T13:44:05.230Z,9.67
2022-11-03T13:46:32.163Z,7.67
2022-11-03T13:51:45.805Z,8.87
2022-11-03T13:59:48.129Z,11.07
2022-11-03T14:05:04.259Z,14.03
2022-11-03T14:07:32.416Z,12.57
2022-11-03T14:10:02.575Z,12.63
2022-11-03T14:12:32.514Z,9.93
2022-11-03T14:14:59.932Z,10.73
2022-11-03T14:17:27.206Z,10.93
2022-11-03T14:19:57.887Z,12.27
2022-11-03T14:22:30.488Z,10.37
2022-11-03T14:24:57.362Z,10.63
2022-11-03T14:27:24.284Z,9.60
2022-11-03T14:29:52.768Z,9.17
2022-11-03T14:32:20.414Z,10.57
2022-11-03T14:34:47.905Z,10.33
2022-11-03T14:37:15.789Z,9.33
2022-11-03T14:39:42.876Z,11.53
2022-11-03T14:42:15.296Z,9.43
2022-11-03T14:44:43.856Z,10.30
2022-11-03T14:47:13.878Z,10.10
2022-11-03T14:49:41.089Z,10.60
2022-11-03T14:52:08.189Z,11.40
2022-11-03T14:54:36.261Z,12.50
2022-11-03T14:57:03.418Z,11.37
2022-11-03T14:59:30.498Z,11.23
2022-11-03T15:01:58.267Z,12.73
2022-11-03T15:04:27.017Z,10.43
2022-11-03T15:06:54.470Z,10.63
2022-11-03T15:09:21.497Z,10.53
2022-11-03T15:11:48.558Z,9.53
2022-11-03T15:14:15.462Z,9.63
2022-11-03T15:16:43.848Z,8.43
2022-11-03T15:19:10.763Z,13.13
2022-11-03T15:21:39.004Z,7.93
2022-11-03T15:26:53.731Z,9.13
2022-11-03T15:29:20.796Z,10.17
2022-11-03T15:31:48.572Z,12.00
2022-11-03T15:34:16.368Z,11.17
2022-11-03T15:36:45.145Z,8.87
2022-11-03T15:39:13.223Z,10.60
2022-11-03T15:41:40.182Z,11.83
2022-11-03T15:44:07.047Z,10.07
2022-11-03T15:46:35.910Z,11.33
2022-11-03T15:49:02.924Z,14.63
2022-11-03T15:51:29.785Z,12.23
2022-11-03T15:53:59.169Z,9.40
2022-11-03T15:56:26.307Z,11.47
2022-11-03T15:58:53.275Z,10.50
2022-11-03T16:01:20.444Z,10.23
2022-11-03T16:03:47.512Z,9.90
2022-11-03T16:06:14.373Z,9.47
2022-11-03T16:08:41.458Z,9.07
2022-11-03T16:11:09.664Z,11.13
2022-11-03T16:13:36.643Z,7.60
2022-11-03T16:16:03.982Z,9.87
2022-11-03T16:18:30.877Z,11.97
2022-11-03T16:20:57.707Z,9.67
2022-11-03T16:23:24.727Z,10.10
2022-11-03T16:25:51.682Z,9.00
2022-11-03T16:28:19.940Z,7.73
2022-11-03T16:30:51.245Z,10.57
2022-11-03T16:33:21.189Z,10.27
2022-11-03T16:35:48.150Z,11.23
2022-11-03T16:38:15.490Z,10.00
2022-11-03T16:40:42.724Z,8.40
2022-11-03T16:43:09.983Z,8.83
2022-11-03T16:45:38.557Z,8.67
2022-11-03T16:48:07.063Z,7.67
2022-11-03T16:50:34.905Z,7.70
2022-11-03T16:53:02.059Z,7.90
2022-11-03T16:55:28.958Z,8.80
2022-11-03T16:57:56.078Z,7.33
2022-11-03T17:00:24.216Z,9.20
2022-11-03T17:02:52.543Z,7.87
2022-11-03T17:05:21.150Z,8.33
2022-11-03T17:07:53.190Z,7.40
2022-11-03T17:10:20.424Z,9.20
2022-11-03T17:12:47.339Z,9.60
2022-11-03T17:15:14.304Z,8.30
2022-11-03T17:17:41.673Z,8.73
2022-11-03T17:20:11.890Z,7.93
2022-11-03T17:22:39.061Z,5.50
2022-11-03T17:25:09.414Z,8.27
2022-11-03T17:27:41.404Z,7.10
2022-11-03T17:30:12.679Z,6.77
2022-11-03T17:32:42.616Z,6.17
2022-11-03T17:35:16.908Z,5.97
2022-11-03T17:37:44.234Z,4.83
2022-11-03T17:40:15.540Z,5.27
2022-11-03T17:42:42.596Z,5.03
2022-11-03T17:45:12.629Z,5.33
2022-11-03T17:47:39.430Z,6.33
2022-11-03T17:50:08.024Z,4.53
2022-11-03T17:52:37.522Z,4.97
2022-11-03T17:55:15.730Z,7.13
2022-11-03T17:57:43.221Z,5.13
2022-11-03T18:00:16.846Z,5.50
2022-11-03T18:02:44.912Z,4.97
2022-11-03T18:05:21.975Z,6.73
2022-11-03T18:07:50.849Z,7.70
2022-11-03T18:10:17.883Z,7.57
2022-11-03T18:13:06.614Z,5.60
2022-11-03T18:15:36.912Z,4.93
2022-11-03T18:18:11.997Z,5.57
2022-11-03T18:20:41.575Z,5.77
2022-11-03T18:23:15.539Z,5.60
2022-11-03T18:25:42.614Z,6.17
2022-11-03T18:28:09.781Z,5.83
2022-11-03T18:30:38.269Z,6.90
2022-11-03T18:33:05.903Z,4.87
2022-11-03T18:35:34.323Z,6.67
2022-11-03T18:38:03.089Z,6.00
2022-11-03T18:40:33.383Z,5.00
2022-11-03T18:43:00.252Z,5.77
2022-11-03T18:45:27.178Z,6.20
2022-11-03T18:47:54.123Z,5.33
2022-11-03T18:50:21.030Z,5.80
2022-11-03T18:52:51.213Z,5.40
2022-11-03T18:55:18.275Z,5.13
2022-11-03T18:57:46.818Z,6.13
2022-11-03T19:00:19.178Z,6.67
2022-11-03T19:02:47.441Z,7.30
2022-11-03T19:05:15.189Z,6.97
2022-11-03T19:07:44.094Z,8.97
2022-11-03T19:10:14.752Z,6.57
2022-11-03T19:12:45.490Z,7.73
2022-11-03T19:15:19.037Z,7.97
2022-11-03T19:17:48.253Z,8.43
2022-11-03T19:20:16.203Z,6.93
2022-11-03T19:22:43.238Z,6.67
2022-11-03T19:25:10.440Z,6.50
2022-11-03T19:27:41.217Z,6.90
2022-11-03T19:30:12.028Z,6.43
2022-11-03T19:32:44.737Z,7.30
2022-11-03T19:35:21.381Z,6.87
2022-11-03T19:37:53.966Z,7.80
2022-11-03T19:40:21.066Z,7.73
2022-11-03T19:42:48.961Z,7.30
2022-11-03T19:45:18.279Z,7.00
2022-11-03T19:48:23.137Z,7.07
2022-11-03T19:50:40.750Z,5.70
2022-11-03T19:53:07.837Z,7.83
2022-11-03T19:55:38.271Z,7.50
2022-11-03T19:58:12.951Z,5.80
2022-11-03T20:00:39.942Z,7.67
2022-11-03T20:03:08.205Z,8.77
2022-11-03T20:05:35.267Z,7.73
2022-11-03T20:08:06.083Z,7.47
2022-11-03T20:10:35.969Z,6.87
2022-11-03T20:13:04.039Z,7.37
2022-11-03T20:15:31.006Z,6.03
2022-11-03T20:17:57.826Z,8.60
2022-11-03T20:20:34.008Z,8.13
2022-11-03T20:23:01.323Z,7.93
2022-11-03T20:25:31.067Z,7.67
2022-11-03T20:27:58.621Z,8.73
2022-11-03T20:30:27.307Z,8.50
2022-11-03T20:32:54.568Z,8.63
2022-11-03T20:35:24.333Z,6.27
2022-11-03T20:37:56.865Z,7.60
2022-11-03T20:40:25.910Z,6.47
2022-11-03T20:42:57.756Z,6.97
2022-11-03T20:45:25.622Z,8.67
2022-11-03T20:47:52.660Z,7.13
2022-11-03T20:50:20.412Z,10.97
2022-11-03T20:52:48.174Z,6.37
2022-11-03T20:55:18.836Z,7.73
2022-11-03T20:57:47.015Z,6.23
2022-11-03T21:00:15.730Z,7.53
2022-11-03T21:02:43.690Z,6.67
2022-11-03T21:05:15.261Z,9.13
2022-11-03T21:07:42.458Z,10.80
2022-11-03T21:10:10.271Z,8.30
2022-11-03T21:12:38.869Z,8.87
2022-11-03T21:15:33.410Z,10.57
2022-11-03T21:18:19.018Z,8.27
2022-11-03T21:20:47.091Z,7.63
2022-11-03T21:23:20.131Z,6.50
2022-11-03T21:25:47.912Z,6.87
2022-11-03T21:28:16.426Z,6.70
2022-11-03T21:30:43.797Z,7.67
2022-11-03T21:33:10.717Z,8.00
2022-11-03T21:35:38.266Z,6.87
2022-11-03T21:38:05.567Z,8.83
2022-11-03T21:40:32.621Z,6.43
2022-11-03T21:43:17.899Z,7.13
2022-11-03T21:45:46.618Z,9.87
2022-11-03T21:48:32.375Z,9.57
2022-11-03T21:51:02.418Z,8.77
2022-11-03T21:53:30.262Z,9.63
2022-11-03T21:55:57.357Z,8.93
2022-11-03T21:58:24.266Z,10.17
2022-11-03T22:00:52.801Z,10.27
2022-11-03T22:03:19.764Z,8.13
2022-11-03T22:05:46.651Z,8.83
2022-11-03T22:08:13.623Z,11.03
2022-11-03T22:10:40.919Z,7.67
2022-11-03T22:13:07.997Z,7.37
2022-11-03T22:15:53.846Z,9.13
2022-11-03T22:18:22.306Z,8.47
2022-11-03T22:21:07.720Z,9.07
2022-11-03T22:23:54.855Z,7.40
2022-11-03T22:26:40.329Z,6.83
2022-11-03T22:29:25.904Z,6.27
2022-11-03T22:31:52.915Z,7.83
2022-11-03T22:34:39.797Z,7.00
2022-11-03T22:37:06.712Z,7.83
2022-11-03T22:39:52.360Z,6.80
2022-11-03T22:42:37.917Z,7.23
2022-11-03T22:45:23.854Z,7.73
2022-11-03T22:47:57.126Z,7.40
2022-11-03T22:50:25.776Z,6.27
2022-11-03T22:52:52.607Z,7.80
2022-11-03T22:55:19.393Z,8.40
2022-11-03T22:57:46.208Z,8.60
2022-11-03T23:00:14.656Z,6.63
2022-11-03T23:02:41.562Z,6.50
2022-11-03T23:05:08.619Z,7.50
2022-11-03T23:07:41.280Z,7.10
2022-11-03T23:10:09.162Z,5.53
2022-11-03T23:12:36.060Z,5.67
2022-11-03T23:15:29.158Z,6.67
2022-11-03T23:18:14.469Z,6.80
2022-11-03T23:20:59.958Z,5.53
2022-11-03T23:23:46.689Z,4.80
2022-11-03T23:26:13.824Z,3.73
2022-11-03T23:28:41.278Z,5.37
2022-11-03T23:31:08.412Z,3.13
2022-11-03T23:33:35.885Z,3.53
2022-11-03T23:36:03.804Z,2.47
2022-11-03T23:38:33.331Z,2.83
2022-11-03T23:41:03.552Z,2.83
2022-11-03T23:43:30.517Z,2.20
2022-11-03T23:46:16.297Z,2.20
2022-11-03T23:48:45.793Z,3.63
2022-11-03T23:51:13.253Z,1.77
2022-11-03T23:53:41.538Z,1.30
2022-11-03T23:56:28.267Z,1.23
2022-11-03T23:58:55.092Z,2.07
